sensor_id;sensor_type;location;lat;lon;timestamp;P1;durP1;ratioP1;P2;durP2;ratioP2
55829;SDS011;41759;53.330;6.002;2023-09-07T00:01:53;14.00;;;9.00;;
55829;SDS011;41759;53.330;6.002;2023-09-07T00:04:23;9.40;;;8.40;;
55829;SDS011;41759;53.330;6.002;2023-09-07T00:06:49;9.63;;;8.23;;
55829;SDS011;41759;53.330;6.002;2023-09-07T00:09:15;8.90;;;7.80;;
55829;SDS011;41759;53.330;6.002;2023-09-07T00:11:43;10.63;;;7.90;;
55829;SDS011;41759;53.330;6.002;2023-09-07T00:14:12;9.43;;;8.43;;
55829;SDS011;41759;53.330;6.002;2023-09-07T00:16:38;9.38;;;7.68;;
55829;SDS011;41759;53.330;6.002;2023-09-07T00:19:09;8.80;;;7.70;;
55829;SDS011;41759;53.330;6.002;2023-09-07T00:21:35;9.80;;;7.70;;
55829;SDS011;41759;53.330;6.002;2023-09-07T00:24:02;9.10;;;8.20;;
55829;SDS011;41759;53.330;6.002;2023-09-07T00:26:30;9.77;;;8.27;;
55829;SDS011;41759;53.330;6.002;2023-09-07T00:28:56;9.00;;;8.10;;
55829;SDS011;41759;53.330;6.002;2023-09-07T00:31:22;9.60;;;8.10;;
55829;SDS011;41759;53.330;6.002;2023-09-07T00:33:47;10.05;;;8.30;;
55829;SDS011;41759;53.330;6.002;2023-09-07T00:36:13;9.75;;;8.23;;
55829;SDS011;41759;53.330;6.002;2023-09-07T00:38:39;9.13;;;8.18;;
55829;SDS011;41759;53.330;6.002;2023-09-07T00:41:05;10.65;;;9.55;;
55829;SDS011;41759;53.330;6.002;2023-09-07T00:43:31;11.90;;;8.30;;
55829;SDS011;41759;53.330;6.002;2023-09-07T00:45:56;10.40;;;8.95;;
55829;SDS011;41759;53.330;6.002;2023-09-07T00:48:22;9.82;;;8.20;;
55829;SDS011;41759;53.330;6.002;2023-09-07T00:50:48;14.40;;;7.88;;
55829;SDS011;41759;53.330;6.002;2023-09-07T00:53:14;11.27;;;8.93;;
55829;SDS011;41759;53.330;6.002;2023-09-07T00:55:40;11.05;;;8.93;;
55829;SDS011;41759;53.330;6.002;2023-09-07T00:58:05;14.88;;;7.65;;
55829;SDS011;41759;53.330;6.002;2023-09-07T01:00:32;9.20;;;8.27;;
55829;SDS011;41759;53.330;6.002;2023-09-07T01:02:58;9.60;;;8.70;;
55829;SDS011;41759;53.330;6.002;2023-09-07T01:05:50;9.82;;;8.13;;
55829;SDS011;41759;53.330;6.002;2023-09-07T01:08:23;13.80;;;8.45;;
55829;SDS011;41759;53.330;6.002;2023-09-07T01:10:51;9.95;;;8.55;;
55829;SDS011;41759;53.330;6.002;2023-09-07T01:13:18;10.65;;;8.27;;
55829;SDS011;41759;53.330;6.002;2023-09-07T01:15:44;8.95;;;8.07;;
55829;SDS011;41759;53.330;6.002;2023-09-07T01:18:10;11.95;;;8.30;;
55829;SDS011;41759;53.330;6.002;2023-09-07T01:20:37;9.95;;;8.20;;
55829;SDS011;41759;53.330;6.002;2023-09-07T01:23:05;9.05;;;7.68;;
55829;SDS011;41759;53.330;6.002;2023-09-07T01:25:32;11.35;;;7.82;;
55829;SDS011;41759;53.330;6.002;2023-09-07T01:27:58;11.82;;;8.43;;
55829;SDS011;41759;53.330;6.002;2023-09-07T01:30:26;9.48;;;8.27;;
55829;SDS011;41759;53.330;6.002;2023-09-07T01:32:52;9.88;;;8.57;;
55829;SDS011;41759;53.330;6.002;2023-09-07T01:35:18;10.65;;;8.15;;
55829;SDS011;41759;53.330;6.002;2023-09-07T01:37:47;10.15;;;8.88;;
55829;SDS011;41759;53.330;6.002;2023-09-07T01:40:13;9.93;;;8.30;;
55829;SDS011;41759;53.330;6.002;2023-09-07T01:42:38;10.18;;;8.55;;
55829;SDS011;41759;53.330;6.002;2023-09-07T01:45:05;11.10;;;9.57;;
55829;SDS011;41759;53.330;6.002;2023-09-07T01:47:31;10.40;;;8.85;;
55829;SDS011;41759;53.330;6.002;2023-09-07T01:49:56;11.02;;;8.15;;
55829;SDS011;41759;53.330;6.002;2023-09-07T01:52:22;10.93;;;8.88;;
55829;SDS011;41759;53.330;6.002;2023-09-07T01:54:48;9.02;;;7.97;;
55829;SDS011;41759;53.330;6.002;2023-09-07T01:57:14;13.35;;;9.13;;
55829;SDS011;41759;53.330;6.002;2023-09-07T01:59:39;9.88;;;8.18;;
55829;SDS011;41759;53.330;6.002;2023-09-07T02:02:05;11.68;;;9.43;;
55829;SDS011;41759;53.330;6.002;2023-09-07T02:04:31;10.98;;;9.63;;
55829;SDS011;41759;53.330;6.002;2023-09-07T02:06:56;13.57;;;9.60;;
55829;SDS011;41759;53.330;6.002;2023-09-07T02:09:22;11.05;;;9.07;;
55829;SDS011;41759;53.330;6.002;2023-09-07T02:11:48;13.93;;;9.25;;
55829;SDS011;41759;53.330;6.002;2023-09-07T02:14:13;13.25;;;8.75;;
55829;SDS011;41759;53.330;6.002;2023-09-07T02:16:40;15.95;;;9.10;;
55829;SDS011;41759;53.330;6.002;2023-09-07T02:19:10;13.68;;;9.98;;
55829;SDS011;41759;53.330;6.002;2023-09-07T02:21:35;10.35;;;8.85;;
55829;SDS011;41759;53.330;6.002;2023-09-07T02:24:01;12.23;;;9.32;;
55829;SDS011;41759;53.330;6.002;2023-09-07T02:26:28;14.23;;;9.50;;
55829;SDS011;41759;53.330;6.002;2023-09-07T02:28:53;10.50;;;9.18;;
55829;SDS011;41759;53.330;6.002;2023-09-07T02:31:20;12.60;;;9.18;;
55829;SDS011;41759;53.330;6.002;2023-09-07T02:33:46;11.75;;;9.40;;
55829;SDS011;41759;53.330;6.002;2023-09-07T02:36:11;10.60;;;9.45;;
55829;SDS011;41759;53.330;6.002;2023-09-07T02:38:37;11.45;;;8.90;;
55829;SDS011;41759;53.330;6.002;2023-09-07T02:41:03;12.82;;;8.73;;
55829;SDS011;41759;53.330;6.002;2023-09-07T02:43:28;11.13;;;8.90;;
55829;SDS011;41759;53.330;6.002;2023-09-07T02:45:54;13.55;;;8.27;;
55829;SDS011;41759;53.330;6.002;2023-09-07T02:48:20;12.63;;;9.40;;
55829;SDS011;41759;53.330;6.002;2023-09-07T02:50:47;11.55;;;8.30;;
55829;SDS011;41759;53.330;6.002;2023-09-07T02:53:15;10.85;;;8.50;;
55829;SDS011;41759;53.330;6.002;2023-09-07T02:55:41;12.48;;;9.38;;
55829;SDS011;41759;53.330;6.002;2023-09-07T02:58:07;11.50;;;9.25;;
55829;SDS011;41759;53.330;6.002;2023-09-07T03:00:32;14.52;;;9.25;;
55829;SDS011;41759;53.330;6.002;2023-09-07T03:03:00;10.80;;;9.35;;
55829;SDS011;41759;53.330;6.002;2023-09-07T03:05:28;12.55;;;10.05;;
55829;SDS011;41759;53.330;6.002;2023-09-07T03:07:54;11.15;;;9.73;;
55829;SDS011;41759;53.330;6.002;2023-09-07T03:10:20;10.20;;;8.90;;
55829;SDS011;41759;53.330;6.002;2023-09-07T03:12:46;10.18;;;9.07;;
55829;SDS011;41759;53.330;6.002;2023-09-07T03:15:11;14.23;;;10.05;;
55829;SDS011;41759;53.330;6.002;2023-09-07T03:17:37;10.88;;;9.80;;
55829;SDS011;41759;53.330;6.002;2023-09-07T03:20:03;10.80;;;9.07;;
55829;SDS011;41759;53.330;6.002;2023-09-07T03:25:08;12.05;;;9.55;;
55829;SDS011;41759;53.330;6.002;2023-09-07T03:27:35;13.77;;;9.55;;
55829;SDS011;41759;53.330;6.002;2023-09-07T03:30:01;12.82;;;9.50;;
55829;SDS011;41759;53.330;6.002;2023-09-07T03:32:29;12.05;;;9.50;;
55829;SDS011;41759;53.330;6.002;2023-09-07T03:35:02;10.73;;;9.60;;
55829;SDS011;41759;53.330;6.002;2023-09-07T03:40:00;13.77;;;10.10;;
55829;SDS011;41759;53.330;6.002;2023-09-07T03:42:26;10.93;;;9.82;;
55829;SDS011;41759;53.330;6.002;2023-09-07T03:44:52;11.15;;;9.05;;
55829;SDS011;41759;53.330;6.002;2023-09-07T03:47:17;13.35;;;9.98;;
55829;SDS011;41759;53.330;6.002;2023-09-07T03:49:43;10.70;;;9.43;;
55829;SDS011;41759;53.330;6.002;2023-09-07T03:52:09;11.55;;;9.52;;
55829;SDS011;41759;53.330;6.002;2023-09-07T03:54:35;12.93;;;10.43;;
55829;SDS011;41759;53.330;6.002;2023-09-07T03:57:01;15.40;;;11.38;;
55829;SDS011;41759;53.330;6.002;2023-09-07T03:59:28;14.63;;;9.32;;
55829;SDS011;41759;53.330;6.002;2023-09-07T04:01:55;9.90;;;8.88;;
55829;SDS011;41759;53.330;6.002;2023-09-07T04:04:20;12.63;;;9.90;;
55829;SDS011;41759;53.330;6.002;2023-09-07T04:06:46;10.48;;;9.45;;
55829;SDS011;41759;53.330;6.002;2023-09-07T04:09:13;11.38;;;10.27;;
55829;SDS011;41759;53.330;6.002;2023-09-07T04:11:39;10.27;;;9.15;;
55829;SDS011;41759;53.330;6.002;2023-09-07T04:14:06;12.63;;;10.07;;
55829;SDS011;41759;53.330;6.002;2023-09-07T04:16:31;10.93;;;9.80;;
55829;SDS011;41759;53.330;6.002;2023-09-07T04:18:57;10.73;;;9.23;;
55829;SDS011;41759;53.330;6.002;2023-09-07T04:21:23;11.23;;;9.30;;
55829;SDS011;41759;53.330;6.002;2023-09-07T04:23:48;12.45;;;10.10;;
55829;SDS011;41759;53.330;6.002;2023-09-07T04:26:14;12.93;;;9.70;;
55829;SDS011;41759;53.330;6.002;2023-09-07T04:28:40;10.65;;;8.98;;
55829;SDS011;41759;53.330;6.002;2023-09-07T04:31:06;12.40;;;10.55;;
55829;SDS011;41759;53.330;6.002;2023-09-07T04:33:32;15.05;;;11.00;;
55829;SDS011;41759;53.330;6.002;2023-09-07T04:38:38;15.88;;;13.52;;
55829;SDS011;41759;53.330;6.002;2023-09-07T04:41:05;10.68;;;9.65;;
55829;SDS011;41759;53.330;6.002;2023-09-07T04:43:31;14.30;;;11.82;;
55829;SDS011;41759;53.330;6.002;2023-09-07T04:45:57;11.98;;;10.70;;
55829;SDS011;41759;53.330;6.002;2023-09-07T04:48:23;10.98;;;9.77;;
55829;SDS011;41759;53.330;6.002;2023-09-07T04:50:57;11.80;;;10.63;;
55829;SDS011;41759;53.330;6.002;2023-09-07T04:53:25;15.43;;;10.85;;
55829;SDS011;41759;53.330;6.002;2023-09-07T04:55:55;13.60;;;10.27;;
55829;SDS011;41759;53.330;6.002;2023-09-07T04:58:21;12.15;;;10.82;;
55829;SDS011;41759;53.330;6.002;2023-09-07T05:00:46;12.68;;;10.02;;
55829;SDS011;41759;53.330;6.002;2023-09-07T05:03:12;12.23;;;10.40;;
55829;SDS011;41759;53.330;6.002;2023-09-07T05:05:39;14.63;;;11.13;;
55829;SDS011;41759;53.330;6.002;2023-09-07T05:08:06;11.98;;;10.60;;
55829;SDS011;41759;53.330;6.002;2023-09-07T05:10:35;11.05;;;9.93;;
55829;SDS011;41759;53.330;6.002;2023-09-07T05:13:01;11.45;;;10.35;;
55829;SDS011;41759;53.330;6.002;2023-09-07T05:15:27;13.85;;;10.60;;
55829;SDS011;41759;53.330;6.002;2023-09-07T05:17:53;11.75;;;9.82;;
55829;SDS011;41759;53.330;6.002;2023-09-07T05:20:21;46.90;;;36.83;;
55829;SDS011;41759;53.330;6.002;2023-09-07T05:22:47;16.73;;;14.77;;
55829;SDS011;41759;53.330;6.002;2023-09-07T05:25:12;13.88;;;11.48;;
55829;SDS011;41759;53.330;6.002;2023-09-07T05:27:41;11.85;;;10.65;;
55829;SDS011;41759;53.330;6.002;2023-09-07T05:30:07;13.80;;;10.50;;
55829;SDS011;41759;53.330;6.002;2023-09-07T05:32:33;11.48;;;10.07;;
55829;SDS011;41759;53.330;6.002;2023-09-07T05:34:58;11.68;;;10.25;;
55829;SDS011;41759;53.330;6.002;2023-09-07T05:37:24;10.63;;;9.52;;
55829;SDS011;41759;53.330;6.002;2023-09-07T05:39:50;10.85;;;9.60;;
55829;SDS011;41759;53.330;6.002;2023-09-07T05:42:15;13.20;;;10.20;;
55829;SDS011;41759;53.330;6.002;2023-09-07T05:44:41;11.02;;;9.73;;
55829;SDS011;41759;53.330;6.002;2023-09-07T05:47:07;32.08;;;21.13;;
55829;SDS011;41759;53.330;6.002;2023-09-07T05:49:36;15.52;;;13.90;;
55829;SDS011;41759;53.330;6.002;2023-09-07T05:52:02;12.40;;;10.90;;
55829;SDS011;41759;53.330;6.002;2023-09-07T05:54:28;11.95;;;9.68;;
55829;SDS011;41759;53.330;6.002;2023-09-07T05:56:54;13.00;;;10.40;;
55829;SDS011;41759;53.330;6.002;2023-09-07T05:59:20;11.82;;;10.18;;
55829;SDS011;41759;53.330;6.002;2023-09-07T06:01:45;14.07;;;9.80;;
55829;SDS011;41759;53.330;6.002;2023-09-07T06:04:11;13.30;;;10.32;;
55829;SDS011;41759;53.330;6.002;2023-09-07T06:06:37;15.30;;;13.70;;
55829;SDS011;41759;53.330;6.002;2023-09-07T06:09:03;12.95;;;11.38;;
55829;SDS011;41759;53.330;6.002;2023-09-07T06:11:29;13.05;;;10.80;;
55829;SDS011;41759;53.330;6.002;2023-09-07T06:13:55;15.52;;;11.27;;
55829;SDS011;41759;53.330;6.002;2023-09-07T06:16:21;13.18;;;10.50;;
55829;SDS011;41759;53.330;6.002;2023-09-07T06:18:46;16.40;;;10.18;;
55829;SDS011;41759;53.330;6.002;2023-09-07T06:21:12;15.82;;;9.77;;
55829;SDS011;41759;53.330;6.002;2023-09-07T06:23:38;11.88;;;9.80;;
55829;SDS011;41759;53.330;6.002;2023-09-07T06:26:03;14.63;;;10.27;;
55829;SDS011;41759;53.330;6.002;2023-09-07T06:28:29;11.32;;;10.23;;
55829;SDS011;41759;53.330;6.002;2023-09-07T06:30:55;10.90;;;8.98;;
55829;SDS011;41759;53.330;6.002;2023-09-07T06:33:21;12.93;;;9.98;;
55829;SDS011;41759;53.330;6.002;2023-09-07T06:35:47;11.48;;;9.52;;
55829;SDS011;41759;53.330;6.002;2023-09-07T06:38:12;10.43;;;9.32;;
55829;SDS011;41759;53.330;6.002;2023-09-07T06:40:38;11.85;;;9.80;;
55829;SDS011;41759;53.330;6.002;2023-09-07T06:43:04;11.40;;;10.20;;
55829;SDS011;41759;53.330;6.002;2023-09-07T06:45:36;12.32;;;9.23;;
55829;SDS011;41759;53.330;6.002;2023-09-07T06:48:03;14.88;;;10.40;;
55829;SDS011;41759;53.330;6.002;2023-09-07T06:50:29;11.40;;;9.57;;
55829;SDS011;41759;53.330;6.002;2023-09-07T06:52:55;11.27;;;10.18;;
55829;SDS011;41759;53.330;6.002;2023-09-07T06:55:20;11.68;;;9.43;;
55829;SDS011;41759;53.330;6.002;2023-09-07T06:57:46;13.82;;;9.77;;
55829;SDS011;41759;53.330;6.002;2023-09-07T07:00:12;16.27;;;10.70;;
55829;SDS011;41759;53.330;6.002;2023-09-07T07:02:38;10.95;;;9.85;;
55829;SDS011;41759;53.330;6.002;2023-09-07T07:05:04;10.20;;;8.93;;
55829;SDS011;41759;53.330;6.002;2023-09-07T07:07:31;13.52;;;9.90;;
55829;SDS011;41759;53.330;6.002;2023-09-07T07:09:57;12.45;;;9.35;;
55829;SDS011;41759;53.330;6.002;2023-09-07T07:12:23;11.20;;;9.35;;
55829;SDS011;41759;53.330;6.002;2023-09-07T07:14:49;11.70;;;9.77;;
55829;SDS011;41759;53.330;6.002;2023-09-07T07:17:14;12.10;;;9.35;;
55829;SDS011;41759;53.330;6.002;2023-09-07T07:19:40;11.10;;;10.00;;
55829;SDS011;41759;53.330;6.002;2023-09-07T07:22:08;11.23;;;10.00;;
55829;SDS011;41759;53.330;6.002;2023-09-07T07:24:34;11.95;;;9.73;;
55829;SDS011;41759;53.330;6.002;2023-09-07T07:27:00;11.60;;;10.38;;
55829;SDS011;41759;53.330;6.002;2023-09-07T07:29:28;12.20;;;9.93;;
55829;SDS011;41759;53.330;6.002;2023-09-07T07:31:54;9.70;;;8.70;;
55829;SDS011;41759;53.330;6.002;2023-09-07T07:34:20;13.93;;;9.88;;
55829;SDS011;41759;53.330;6.002;2023-09-07T07:36:45;11.95;;;9.75;;
55829;SDS011;41759;53.330;6.002;2023-09-07T07:39:11;12.75;;;10.15;;
55829;SDS011;41759;53.330;6.002;2023-09-07T07:41:37;12.90;;;9.50;;
55829;SDS011;41759;53.330;6.002;2023-09-07T07:44:03;11.50;;;9.32;;
55829;SDS011;41759;53.330;6.002;2023-09-07T07:46:29;15.45;;;9.90;;
55829;SDS011;41759;53.330;6.002;2023-09-07T07:48:54;10.85;;;9.68;;
55829;SDS011;41759;53.330;6.002;2023-09-07T07:51:21;10.57;;;9.55;;
55829;SDS011;41759;53.330;6.002;2023-09-07T07:53:46;11.00;;;9.85;;
55829;SDS011;41759;53.330;6.002;2023-09-07T07:56:16;12.10;;;9.50;;
55829;SDS011;41759;53.330;6.002;2023-09-07T07:58:42;10.98;;;8.95;;
55829;SDS011;41759;53.330;6.002;2023-09-07T08:01:16;13.48;;;9.27;;
55829;SDS011;41759;53.330;6.002;2023-09-07T08:03:43;12.52;;;9.10;;
55829;SDS011;41759;53.330;6.002;2023-09-07T08:06:09;10.38;;;9.05;;
55829;SDS011;41759;53.330;6.002;2023-09-07T08:08:36;10.05;;;9.10;;
55829;SDS011;41759;53.330;6.002;2023-09-07T08:11:02;11.90;;;9.07;;
55829;SDS011;41759;53.330;6.002;2023-09-07T08:13:32;11.18;;;9.45;;
55829;SDS011;41759;53.330;6.002;2023-09-07T08:15:59;10.90;;;8.05;;
55829;SDS011;41759;53.330;6.002;2023-09-07T08:18:26;12.38;;;8.05;;
55829;SDS011;41759;53.330;6.002;2023-09-07T08:20:52;11.13;;;7.93;;
55829;SDS011;41759;53.330;6.002;2023-09-07T08:23:18;10.57;;;7.30;;
55829;SDS011;41759;53.330;6.002;2023-09-07T08:25:44;12.63;;;7.72;;
55829;SDS011;41759;53.330;6.002;2023-09-07T08:28:11;8.98;;;7.20;;
55829;SDS011;41759;53.330;6.002;2023-09-07T08:30:37;9.77;;;8.23;;
55829;SDS011;41759;53.330;6.002;2023-09-07T08:33:03;11.70;;;6.90;;
55829;SDS011;41759;53.330;6.002;2023-09-07T08:35:31;8.18;;;6.63;;
55829;SDS011;41759;53.330;6.002;2023-09-07T08:38:03;10.30;;;6.90;;
55829;SDS011;41759;53.330;6.002;2023-09-07T08:40:33;11.32;;;7.68;;
55829;SDS011;41759;53.330;6.002;2023-09-07T08:43:03;11.43;;;6.78;;
55829;SDS011;41759;53.330;6.002;2023-09-07T08:45:31;10.50;;;6.85;;
55829;SDS011;41759;53.330;6.002;2023-09-07T08:48:01;9.55;;;7.30;;
55829;SDS011;41759;53.330;6.002;2023-09-07T08:50:28;10.00;;;6.55;;
55829;SDS011;41759;53.330;6.002;2023-09-07T08:52:56;7.10;;;6.03;;
55829;SDS011;41759;53.330;6.002;2023-09-07T08:55:24;9.93;;;6.45;;
55829;SDS011;41759;53.330;6.002;2023-09-07T08:57:51;7.32;;;5.82;;
55829;SDS011;41759;53.330;6.002;2023-09-07T09:00:16;9.80;;;6.28;;
55829;SDS011;41759;53.330;6.002;2023-09-07T09:02:48;11.35;;;5.93;;
55829;SDS011;41759;53.330;6.002;2023-09-07T09:05:14;10.23;;;5.80;;
55829;SDS011;41759;53.330;6.002;2023-09-07T09:07:43;9.98;;;5.10;;
55829;SDS011;41759;53.330;6.002;2023-09-07T09:10:09;8.77;;;5.45;;
55829;SDS011;41759;53.330;6.002;2023-09-07T09:12:35;7.18;;;5.35;;
55829;SDS011;41759;53.330;6.002;2023-09-07T09:15:01;8.50;;;5.35;;
55829;SDS011;41759;53.330;6.002;2023-09-07T09:17:28;6.90;;;5.53;;
55829;SDS011;41759;53.330;6.002;2023-09-07T09:19:54;10.32;;;5.93;;
55829;SDS011;41759;53.330;6.002;2023-09-07T09:22:23;8.20;;;5.38;;
55829;SDS011;41759;53.330;6.002;2023-09-07T09:24:49;7.22;;;4.43;;
55829;SDS011;41759;53.330;6.002;2023-09-07T09:27:15;6.28;;;4.72;;
55829;SDS011;41759;53.330;6.002;2023-09-07T09:29:42;6.85;;;4.55;;
55829;SDS011;41759;53.330;6.002;2023-09-07T09:32:09;6.97;;;4.35;;
55829;SDS011;41759;53.330;6.002;2023-09-07T09:34:35;8.23;;;4.97;;
55829;SDS011;41759;53.330;6.002;2023-09-07T09:37:02;6.35;;;4.65;;
55829;SDS011;41759;53.330;6.002;2023-09-07T09:39:28;6.72;;;4.50;;
55829;SDS011;41759;53.330;6.002;2023-09-07T09:41:55;5.30;;;4.80;;
55829;SDS011;41759;53.330;6.002;2023-09-07T09:44:21;9.55;;;4.97;;
55829;SDS011;41759;53.330;6.002;2023-09-07T09:46:51;5.50;;;4.10;;
55829;SDS011;41759;53.330;6.002;2023-09-07T09:49:19;8.80;;;4.70;;
55829;SDS011;41759;53.330;6.002;2023-09-07T09:51:49;5.65;;;4.47;;
55829;SDS011;41759;53.330;6.002;2023-09-07T09:54:19;9.40;;;4.95;;
55829;SDS011;41759;53.330;6.002;2023-09-07T09:56:49;13.52;;;5.25;;
55829;SDS011;41759;53.330;6.002;2023-09-07T09:59:16;7.68;;;4.35;;
55829;SDS011;41759;53.330;6.002;2023-09-07T10:01:45;7.07;;;4.40;;
55829;SDS011;41759;53.330;6.002;2023-09-07T10:04:13;12.25;;;9.75;;
55829;SDS011;41759;53.330;6.002;2023-09-07T10:07:00;15.63;;;10.30;;
55829;SDS011;41759;53.330;6.002;2023-09-07T10:09:30;9.68;;;4.88;;
55829;SDS011;41759;53.330;6.002;2023-09-07T10:11:58;5.45;;;3.63;;
55829;SDS011;41759;53.330;6.002;2023-09-07T10:14:25;5.13;;;4.35;;
55829;SDS011;41759;53.330;6.002;2023-09-07T10:16:51;6.82;;;4.35;;
55829;SDS011;41759;53.330;6.002;2023-09-07T10:19:21;7.05;;;4.13;;
55829;SDS011;41759;53.330;6.002;2023-09-07T10:21:48;8.25;;;4.13;;
55829;SDS011;41759;53.330;6.002;2023-09-07T10:24:25;8.18;;;4.20;;
55829;SDS011;41759;53.330;6.002;2023-09-07T10:27:00;6.50;;;4.15;;
55829;SDS011;41759;53.330;6.002;2023-09-07T10:29:42;8.38;;;4.78;;
55829;SDS011;41759;53.330;6.002;2023-09-07T10:32:14;5.18;;;4.07;;
55829;SDS011;41759;53.330;6.002;2023-09-07T10:34:41;9.48;;;3.97;;
55829;SDS011;41759;53.330;6.002;2023-09-07T10:37:13;5.35;;;3.97;;
55829;SDS011;41759;53.330;6.002;2023-09-07T10:39:43;5.65;;;3.65;;
55829;SDS011;41759;53.330;6.002;2023-09-07T10:42:25;8.32;;;4.00;;
55829;SDS011;41759;53.330;6.002;2023-09-07T10:44:51;6.18;;;4.38;;
55829;SDS011;41759;53.330;6.002;2023-09-07T10:47:17;7.63;;;3.90;;
55829;SDS011;41759;53.330;6.002;2023-09-07T10:49:43;6.93;;;3.85;;
55829;SDS011;41759;53.330;6.002;2023-09-07T10:52:09;6.10;;;4.20;;
55829;SDS011;41759;53.330;6.002;2023-09-07T10:54:35;6.68;;;3.92;;
55829;SDS011;41759;53.330;6.002;2023-09-07T10:57:08;7.40;;;3.97;;
55829;SDS011;41759;53.330;6.002;2023-09-07T10:59:36;7.38;;;4.00;;
55829;SDS011;41759;53.330;6.002;2023-09-07T11:02:05;7.82;;;4.20;;
55829;SDS011;41759;53.330;6.002;2023-09-07T11:04:32;7.63;;;4.32;;
55829;SDS011;41759;53.330;6.002;2023-09-07T11:06:58;7.57;;;3.95;;
55829;SDS011;41759;53.330;6.002;2023-09-07T11:09:24;10.07;;;4.93;;
55829;SDS011;41759;53.330;6.002;2023-09-07T11:11:50;8.88;;;4.35;;
55829;SDS011;41759;53.330;6.002;2023-09-07T11:14:15;7.28;;;3.60;;
55829;SDS011;41759;53.330;6.002;2023-09-07T11:16:41;8.10;;;4.00;;
55829;SDS011;41759;53.330;6.002;2023-09-07T11:19:08;7.65;;;4.43;;
55829;SDS011;41759;53.330;6.002;2023-09-07T11:21:34;6.10;;;4.10;;
55829;SDS011;41759;53.330;6.002;2023-09-07T11:24:01;6.05;;;4.00;;
55829;SDS011;41759;53.330;6.002;2023-09-07T11:26:39;7.45;;;5.35;;
55829;SDS011;41759;53.330;6.002;2023-09-07T11:29:09;9.30;;;7.75;;
55829;SDS011;41759;53.330;6.002;2023-09-07T11:31:35;11.68;;;8.00;;
55829;SDS011;41759;53.330;6.002;2023-09-07T11:34:01;9.90;;;5.97;;
55829;SDS011;41759;53.330;6.002;2023-09-07T11:36:29;7.18;;;4.00;;
55829;SDS011;41759;53.330;6.002;2023-09-07T11:38:54;4.68;;;3.90;;
55829;SDS011;41759;53.330;6.002;2023-09-07T11:41:20;6.55;;;3.88;;
55829;SDS011;41759;53.330;6.002;2023-09-07T11:43:46;7.47;;;3.60;;
55829;SDS011;41759;53.330;6.002;2023-09-07T11:46:12;7.00;;;4.47;;
55829;SDS011;41759;53.330;6.002;2023-09-07T11:48:37;6.45;;;4.13;;
55829;SDS011;41759;53.330;6.002;2023-09-07T11:51:03;8.05;;;4.07;;
55829;SDS011;41759;53.330;6.002;2023-09-07T11:53:29;8.90;;;4.20;;
55829;SDS011;41759;53.330;6.002;2023-09-07T11:55:55;8.40;;;4.03;;
55829;SDS011;41759;53.330;6.002;2023-09-07T11:58:22;7.43;;;3.88;;
55829;SDS011;41759;53.330;6.002;2023-09-07T12:00:51;5.50;;;3.53;;
55829;SDS011;41759;53.330;6.002;2023-09-07T12:03:17;7.82;;;4.30;;
55829;SDS011;41759;53.330;6.002;2023-09-07T12:05:43;6.32;;;4.20;;
55829;SDS011;41759;53.330;6.002;2023-09-07T12:08:09;8.10;;;4.10;;
55829;SDS011;41759;53.330;6.002;2023-09-07T12:10:35;5.78;;;4.38;;
55829;SDS011;41759;53.330;6.002;2023-09-07T12:13:00;6.45;;;4.10;;
55829;SDS011;41759;53.330;6.002;2023-09-07T12:15:26;10.10;;;5.90;;
55829;SDS011;41759;53.330;6.002;2023-09-07T12:17:52;10.85;;;4.10;;
55829;SDS011;41759;53.330;6.002;2023-09-07T12:20:19;8.10;;;4.45;;
55829;SDS011;41759;53.330;6.002;2023-09-07T12:22:46;8.15;;;4.43;;
55829;SDS011;41759;53.330;6.002;2023-09-07T12:25:12;8.70;;;4.00;;
55829;SDS011;41759;53.330;6.002;2023-09-07T12:27:38;5.97;;;4.20;;
55829;SDS011;41759;53.330;6.002;2023-09-07T12:30:04;5.65;;;3.47;;
55829;SDS011;41759;53.330;6.002;2023-09-07T12:32:33;9.02;;;4.10;;
55829;SDS011;41759;53.330;6.002;2023-09-07T12:34:59;5.53;;;4.13;;
55829;SDS011;41759;53.330;6.002;2023-09-07T12:37:25;5.07;;;4.00;;
55829;SDS011;41759;53.330;6.002;2023-09-07T12:39:50;5.82;;;4.00;;
55829;SDS011;41759;53.330;6.002;2023-09-07T12:42:16;9.90;;;4.55;;
55829;SDS011;41759;53.330;6.002;2023-09-07T12:44:43;6.97;;;4.60;;
55829;SDS011;41759;53.330;6.002;2023-09-07T12:47:09;6.10;;;4.00;;
55829;SDS011;41759;53.330;6.002;2023-09-07T12:49:34;5.78;;;3.90;;
55829;SDS011;41759;53.330;6.002;2023-09-07T12:52:00;5.68;;;3.53;;
55829;SDS011;41759;53.330;6.002;2023-09-07T12:54:33;5.85;;;3.80;;
55829;SDS011;41759;53.330;6.002;2023-09-07T12:57:00;8.68;;;4.57;;
55829;SDS011;41759;53.330;6.002;2023-09-07T12:59:26;4.95;;;3.70;;
55829;SDS011;41759;53.330;6.002;2023-09-07T13:01:52;5.85;;;3.53;;
55829;SDS011;41759;53.330;6.002;2023-09-07T13:04:20;5.57;;;4.00;;
55829;SDS011;41759;53.330;6.002;2023-09-07T13:06:46;4.97;;;3.50;;
55829;SDS011;41759;53.330;6.002;2023-09-07T13:09:12;5.85;;;4.28;;
55829;SDS011;41759;53.330;6.002;2023-09-07T13:11:38;8.30;;;3.83;;
55829;SDS011;41759;53.330;6.002;2023-09-07T13:14:04;5.88;;;3.75;;
55829;SDS011;41759;53.330;6.002;2023-09-07T13:16:30;7.88;;;3.80;;
55829;SDS011;41759;53.330;6.002;2023-09-07T13:18:57;8.60;;;3.90;;
55829;SDS011;41759;53.330;6.002;2023-09-07T13:21:23;5.93;;;3.90;;
55829;SDS011;41759;53.330;6.002;2023-09-07T13:23:49;6.13;;;4.30;;
55829;SDS011;41759;53.330;6.002;2023-09-07T13:26:15;7.82;;;3.60;;
55829;SDS011;41759;53.330;6.002;2023-09-07T13:28:41;5.70;;;3.35;;
55829;SDS011;41759;53.330;6.002;2023-09-07T13:31:06;6.43;;;4.10;;
55829;SDS011;41759;53.330;6.002;2023-09-07T13:33:32;7.72;;;3.65;;
55829;SDS011;41759;53.330;6.002;2023-09-07T13:35:58;6.00;;;3.20;;
55829;SDS011;41759;53.330;6.002;2023-09-07T13:38:24;6.53;;;3.90;;
55829;SDS011;41759;53.330;6.002;2023-09-07T13:40:49;6.10;;;3.80;;
55829;SDS011;41759;53.330;6.002;2023-09-07T13:43:15;9.43;;;4.20;;
55829;SDS011;41759;53.330;6.002;2023-09-07T13:45:41;6.05;;;3.90;;
55829;SDS011;41759;53.330;6.002;2023-09-07T13:48:08;5.97;;;3.75;;
55829;SDS011;41759;53.330;6.002;2023-09-07T13:50:33;7.97;;;3.90;;
55829;SDS011;41759;53.330;6.002;2023-09-07T13:52:59;9.48;;;4.28;;
55829;SDS011;41759;53.330;6.002;2023-09-07T13:55:25;8.70;;;4.82;;
55829;SDS011;41759;53.330;6.002;2023-09-07T13:57:50;5.35;;;4.05;;
55829;SDS011;41759;53.330;6.002;2023-09-07T14:00:16;5.60;;;3.95;;
55829;SDS011;41759;53.330;6.002;2023-09-07T14:02:42;5.93;;;4.38;;
55829;SDS011;41759;53.330;6.002;2023-09-07T14:05:07;5.38;;;3.80;;
55829;SDS011;41759;53.330;6.002;2023-09-07T14:07:33;7.93;;;3.72;;
55829;SDS011;41759;53.330;6.002;2023-09-07T14:09:59;7.10;;;3.58;;
55829;SDS011;41759;53.330;6.002;2023-09-07T14:12:26;5.82;;;3.78;;
55829;SDS011;41759;53.330;6.002;2023-09-07T14:14:52;5.03;;;3.78;;
55829;SDS011;41759;53.330;6.002;2023-09-07T14:17:18;6.13;;;4.18;;
55829;SDS011;41759;53.330;6.002;2023-09-07T14:19:46;7.35;;;4.03;;
55829;SDS011;41759;53.330;6.002;2023-09-07T14:22:15;6.80;;;3.80;;
55829;SDS011;41759;53.330;6.002;2023-09-07T14:24:40;7.00;;;4.07;;
55829;SDS011;41759;53.330;6.002;2023-09-07T14:27:06;6.63;;;4.22;;
55829;SDS011;41759;53.330;6.002;2023-09-07T14:29:34;7.28;;;3.67;;
55829;SDS011;41759;53.330;6.002;2023-09-07T14:32:03;8.85;;;4.03;;
55829;SDS011;41759;53.330;6.002;2023-09-07T14:34:30;5.63;;;3.92;;
55829;SDS011;41759;53.330;6.002;2023-09-07T14:36:55;5.57;;;4.03;;
55829;SDS011;41759;53.330;6.002;2023-09-07T14:39:24;6.95;;;4.40;;
55829;SDS011;41759;53.330;6.002;2023-09-07T14:41:50;10.70;;;4.20;;
55829;SDS011;41759;53.330;6.002;2023-09-07T14:44:18;6.57;;;4.45;;